createdAt,value
2016-09-19T00:00:18.095Z,80.35
2016-09-19T00:01:18.072Z,80.25
2016-09-19T00:02:18.066Z,79.77
2016-09-19T00:03:18.048Z,79.86
2016-09-19T00:04:17.721Z,80.06
2016-09-19T00:05:17.693Z,80.73
2016-09-19T00:06:18.013Z,81.02
2016-09-19T00:07:17.989Z,81.46
2016-09-19T00:08:17.971Z,80.73
2016-09-19T00:09:17.968Z,80.6
2016-09-19T00:10:17.638Z,80.83
2016-09-19T00:11:17.934Z,80.54
2016-09-19T00:12:17.927Z,80.73
2016-09-19T00:13:17.904Z,81.02
2016-09-19T00:14:17.895Z,80.92
2016-09-19T00:15:17.883Z,81.02
2016-09-19T00:16:17.861Z,81.7
2016-09-19T00:17:17.844Z,81.46
2016-09-19T00:18:17.830Z,81.84
2016-09-19T00:19:17.824Z,82.04
2016-09-19T00:20:17.813Z,81.84
2016-09-19T00:21:17.791Z,82.32
2016-09-19T00:22:17.468Z,82.42
2016-09-19T00:23:17.784Z,82.32
2016-09-19T00:24:17.756Z,82.14
2016-09-19T00:25:17.738Z,82.52
2016-09-19T00:26:17.740Z,82.23
2016-09-19T00:27:17.707Z,82.23
2016-09-19T00:28:17.388Z,82.32
2016-09-19T00:29:17.683Z,82.42
2016-09-19T00:30:17.342Z,82.23
2016-09-19T00:31:17.661Z,82.71
2016-09-19T00:32:17.321Z,82.61
2016-09-19T00:33:17.629Z,82.61
2016-09-19T00:34:17.614Z,83.09
2016-09-19T00:35:17.283Z,83.39
2016-09-19T00:36:17.598Z,83.15
2016-09-19T00:37:17.252Z,83.48
2016-09-19T00:38:17.559Z,83.09
2016-09-19T00:39:17.543Z,82.61
2016-09-19T00:40:17.217Z,82.61
2016-09-19T00:41:17.518Z,82.23
2016-09-19T00:42:17.630Z,82.61
2016-09-19T00:43:17.485Z,82.42
2016-09-19T00:44:17.160Z,82.9
2016-09-19T00:45:17.137Z,83.29
2016-09-19T00:46:17.448Z,83.19
2016-09-19T00:47:17.441Z,83.48
2016-09-19T00:48:17.505Z,83.06
2016-09-19T00:49:17.080Z,83.29
2016-09-19T00:50:17.386Z,83.19
2016-09-19T00:51:17.378Z,82.9
2016-09-19T00:52:17.374Z,82.65
2016-09-19T00:53:17.355Z,82.61
2016-09-19T00:54:17.345Z,82.42
2016-09-19T00:55:17.319Z,83.09
2016-09-19T00:56:17.316Z,83.09
2016-09-19T00:57:16.976Z,83.09
2016-09-19T00:58:17.280Z,82.71
2016-09-19T00:59:17.267Z,82.56
2016-09-19T01:00:17.257Z,82.65
2016-09-19T01:01:16.920Z,82.37
2016-09-19T01:02:17.211Z,82.32
2016-09-19T01:03:16.886Z,82.65
2016-09-19T01:04:17.209Z,83
2016-09-19T01:05:17.179Z,82.52
2016-09-19T01:06:17.175Z,82.81
2016-09-19T01:07:16.830Z,82.81
2016-09-19T01:08:17.138Z,82.9
2016-09-19T01:09:16.808Z,83
2016-09-19T01:10:16.792Z,83.09
2016-09-19T01:11:17.107Z,83.19
2016-09-19T01:12:17.077Z,83.77
2016-09-19T01:13:17.070Z,83.58
2016-09-19T01:14:16.727Z,84.06
2016-09-19T01:15:16.713Z,84.06
2016-09-19T01:16:17.044Z,84.11
2016-09-19T01:17:17.016Z,84.21
2016-09-19T01:18:16.680Z,83.83
2016-09-19T01:19:16.977Z,84.21
2016-09-19T01:20:16.980Z,83.77
2016-09-19T01:21:16.622Z,84.34
2016-09-19T01:22:16.621Z,84.16
2016-09-19T01:23:16.940Z,84.25
2016-09-19T01:24:16.921Z,83.48
2016-09-19T01:25:16.905Z,83.33
2016-09-19T01:26:16.886Z,83.09
2016-09-19T01:27:16.869Z,83.39
2016-09-19T01:28:16.846Z,83.58
2016-09-19T01:29:16.850Z,83.19
2016-09-19T01:30:16.811Z,84.06
2016-09-19T01:31:16.500Z,83.58
2016-09-19T01:32:16.792Z,83.86
2016-09-19T01:33:16.783Z,83.77
2016-09-19T01:34:16.771Z,84.16
2016-09-19T01:35:16.428Z,84.06
2016-09-19T01:36:16.438Z,84.06
2016-09-19T01:37:16.406Z,84.06
2016-09-19T01:38:16.388Z,83.48
2016-09-19T01:39:16.377Z,83.86
2016-09-19T01:40:16.358Z,83.86
2016-09-19T01:41:16.357Z,83.96
2016-09-19T01:42:16.661Z,84.25
2016-09-19T01:43:16.319Z,84.63
2016-09-19T01:44:16.306Z,84.88
2016-09-19T01:45:16.607Z,84.59
2016-09-19T01:46:16.597Z,85.5
2016-09-19T01:47:16.581Z,85.17
2016-09-19T01:48:16.576Z,85.17
2016-09-19T01:49:16.567Z,84.88
2016-09-19T01:50:16.541Z,85.27
2016-09-19T01:51:16.520Z,85.65
2016-09-19T01:52:16.505Z,85.36
2016-09-19T01:53:16.491Z,84.63
2016-09-19T01:54:16.188Z,84.83
2016-09-19T01:55:16.477Z,84.06
2016-09-19T01:56:16.457Z,84.06
2016-09-19T01:57:16.450Z,85.11
2016-09-19T01:58:16.433Z,84.88
2016-09-19T01:59:16.420Z,84.54
2016-09-19T02:00:16.393Z,84.88
2016-09-19T02:01:16.059Z,85.11
2016-09-19T02:02:16.373Z,84.78
2016-09-19T02:03:16.040Z,83.86
2016-09-19T02:04:16.066Z,83.86
2016-09-19T02:05:16.326Z,84.25
2016-09-19T02:06:16.309Z,84.34
2016-09-19T02:07:16.294Z,83.77
2016-09-19T02:08:16.290Z,84
2016-09-19T02:09:15.948Z,83.96
2016-09-19T02:10:16.261Z,84.06
2016-09-19T02:11:16.245Z,85.07
2016-09-19T02:12:15.907Z,85.17
2016-09-19T02:13:16.368Z,85.31
2016-09-19T02:14:16.193Z,85.27
2016-09-19T02:15:16.191Z,85.36
2016-09-19T02:16:15.863Z,85.46
2016-09-19T02:17:16.146Z,85.31
2016-09-19T02:18:16.140Z,84.88
2016-09-19T02:19:16.139Z,85.02
2016-09-19T02:20:16.109Z,85.36
2016-09-19T02:21:15.771Z,84.88
2016-09-19T02:22:16.080Z,85.17
2016-09-19T02:23:15.746Z,85.17
2016-09-19T02:24:16.054Z,85.55
2016-09-19T02:25:16.037Z,85.75
2016-09-19T02:26:16.140Z,85.55
2016-09-19T02:27:15.690Z,85.55
2016-09-19T02:28:16.010Z,85.65
2016-09-19T02:29:15.997Z,85.84
2016-09-19T02:30:16.082Z,85.46
2016-09-19T02:31:15.948Z,85.17
2016-09-19T02:32:15.690Z,84.88
2016-09-19T02:33:15.616Z,85.17
2016-09-19T02:34:15.592Z,85.46
2016-09-19T02:35:15.911Z,85.27
2016-09-19T02:36:15.892Z,85.55
2016-09-19T02:37:15.557Z,84.88
2016-09-19T02:38:15.858Z,85.46
2016-09-19T02:39:15.847Z,85.07
2016-09-19T02:40:15.830Z,85.36
2016-09-19T02:41:15.485Z,85.46
2016-09-19T02:42:15.480Z,84.69
2016-09-19T02:43:15.801Z,84.69
2016-09-19T02:44:15.774Z,85.07
2016-09-19T02:45:15.427Z,84.88
2016-09-19T02:46:15.743Z,84.88
2016-09-19T02:47:15.725Z,85.07
2016-09-19T02:48:15.702Z,84.69
2016-09-19T02:49:15.729Z,85.17
2016-09-19T02:50:15.684Z,85.17
2016-09-19T02:51:15.346Z,85.27
2016-09-19T02:52:15.660Z,85.07
2016-09-19T02:53:15.641Z,85.55
2016-09-19T02:54:15.621Z,85.65
2016-09-19T02:55:15.670Z,85.71
2016-09-19T02:56:15.601Z,85.27
2016-09-19T02:57:15.586Z,85.36
2016-09-19T02:58:15.249Z,84.78
2016-09-19T02:59:15.228Z,84.59
2016-09-19T03:00:15.221Z,84.88
2016-09-19T03:01:15.196Z,85.07
2016-09-19T03:02:15.506Z,85.27
2016-09-19T03:03:15.499Z,85.27
2016-09-19T03:04:15.479Z,85.17
2016-09-19T03:05:15.459Z,85.03
2016-09-19T03:06:15.453Z,85.71
2016-09-19T03:07:15.110Z,85.84
2016-09-19T03:08:15.416Z,85.61
2016-09-19T03:09:15.407Z,85.22
2016-09-19T03:10:15.389Z,85.22
2016-09-19T03:11:15.369Z,85.46
2016-09-19T03:12:15.038Z,84.88
2016-09-19T03:13:15.346Z,85.27
2016-09-19T03:14:15.034Z,85.22
2016-09-19T03:15:15.319Z,85.03
2016-09-19T03:16:14.987Z,85.75
2016-09-19T03:17:15.288Z,85.65
2016-09-19T03:18:15.287Z,85.55
2016-09-19T03:19:15.257Z,85.65
2016-09-19T03:20:15.240Z,85.07
2016-09-19T03:21:14.907Z,85.17
2016-09-19T03:22:15.217Z,85.07
2016-09-19T03:23:15.203Z,84.88
2016-09-19T03:24:15.186Z,84.98
2016-09-19T03:25:14.858Z,85.07
2016-09-19T03:26:14.845Z,85.27
2016-09-19T03:27:15.137Z,84.98
2016-09-19T03:28:15.137Z,85.07
2016-09-19T03:29:15.118Z,84.88
2016-09-19T03:30:14.780Z,84.94
2016-09-19T03:31:15.090Z,85.17
2016-09-19T03:32:15.086Z,84.88
2016-09-19T03:33:15.058Z,85.17
2016-09-19T03:34:15.055Z,84.94
2016-09-19T03:35:15.022Z,85.22
2016-09-19T03:36:15.009Z,85.13
2016-09-19T03:37:14.999Z,85.8
2016-09-19T03:38:14.984Z,85.71
2016-09-19T03:39:14.644Z,84.94
2016-09-19T03:40:14.967Z,84.78
2016-09-19T03:41:14.939Z,84.88
2016-09-19T03:42:14.921Z,84.11
2016-09-19T03:43:14.907Z,84.11
2016-09-19T03:44:14.897Z,84.88
2016-09-19T03:45:14.564Z,84.88
2016-09-19T03:46:14.868Z,84.3
2016-09-19T03:47:14.849Z,84.3
2016-09-19T03:48:14.837Z,85.07
2016-09-19T03:49:14.818Z,84.88
2016-09-19T03:50:14.813Z,84.59
2016-09-19T03:51:14.792Z,84.74
2016-09-19T03:52:14.779Z,84.74
2016-09-19T03:53:14.763Z,84.94
2016-09-19T03:54:14.744Z,84.88
2016-09-19T03:55:14.415Z,84.64
2016-09-19T03:56:14.392Z,85.03
2016-09-19T03:57:14.387Z,85.61
2016-09-19T03:58:14.378Z,85.89
2016-09-19T03:59:14.436Z,86.38
2016-09-19T04:00:14.659Z,86.28
2016-09-19T04:01:14.333Z,86.47
2016-09-19T04:02:14.644Z,85.99
2016-09-19T04:03:14.699Z,85.89
2016-09-19T04:04:14.600Z,85.41
2016-09-19T04:05:14.599Z,85.8
2016-09-19T04:06:14.255Z,85.89
2016-09-19T04:07:14.628Z,85.51
2016-09-19T04:08:14.540Z,86.09
2016-09-19T04:09:14.538Z,85.51
2016-09-19T04:10:14.198Z,85.61
2016-09-19T04:11:14.510Z,85.75
2016-09-19T04:12:14.168Z,85.22
2016-09-19T04:13:14.481Z,85.55
2016-09-19T04:14:14.465Z,85.13
2016-09-19T04:15:14.176Z,85.46
2016-09-19T04:16:14.440Z,85.51
2016-09-19T04:17:14.100Z,85.71
2016-09-19T04:18:14.410Z,85.8
2016-09-19T04:19:14.420Z,85.32
2016-09-19T04:20:14.369Z,85.46
2016-09-19T04:21:14.362Z,85.17
2016-09-19T04:22:14.346Z,85.89
2016-09-19T04:23:14.069Z,85.51
2016-09-19T04:24:13.985Z,85.71
2016-09-19T04:25:14.314Z,85.71
2016-09-19T04:26:14.290Z,85.75
2016-09-19T04:27:14.016Z,85.51
2016-09-19T04:28:14.317Z,84.78
2016-09-19T04:29:14.235Z,84.4
2016-09-19T04:30:14.222Z,84.11
2016-09-19T04:31:13.906Z,84.73
2016-09-19T04:32:14.200Z,84.78
2016-09-19T04:33:13.909Z,85.17
2016-09-19T04:34:13.860Z,85.75
2016-09-19T04:35:14.190Z,85.32
2016-09-19T04:36:14.145Z,85.99
2016-09-19T04:37:13.849Z,86.09
2016-09-19T04:38:14.189Z,85.8
2016-09-19T04:39:13.815Z,86.28
2016-09-19T04:40:14.082Z,86.47
2016-09-19T04:41:13.738Z,86.95
2016-09-19T04:42:14.060Z,86.57
2016-09-19T04:43:14.039Z,86.57
2016-09-19T04:44:14.030Z,86.76
2016-09-19T04:45:14.010Z,86.76
2016-09-19T04:46:13.992Z,86.66
2016-09-19T04:47:13.970Z,86.95
2016-09-19T04:48:13.639Z,84.74
2016-09-19T04:49:13.627Z,83.96
2016-09-19T04:50:13.937Z,84.21
2016-09-19T04:51:13.906Z,84.59
2016-09-19T04:52:13.917Z,85.46
2016-09-19T04:53:13.882Z,84.88
2016-09-19T04:54:13.867Z,85.07
2016-09-19T04:55:13.547Z,86.13
2016-09-19T04:56:13.837Z,85.03
2016-09-19T04:57:13.829Z,84.25
2016-09-19T04:58:13.825Z,84.69
2016-09-19T04:59:13.807Z,85.55
2016-09-19T05:00:13.456Z,85.8
2016-09-19T05:01:13.447Z,85.99
2016-09-19T05:02:13.435Z,85.89
2016-09-19T05:03:13.418Z,86.28
2016-09-19T05:04:13.408Z,86.47
2016-09-19T05:05:13.717Z,85.61
2016-09-19T05:06:13.388Z,84.98
2016-09-19T05:07:13.369Z,85.07
2016-09-19T05:08:13.661Z,85.27
2016-09-19T05:09:13.647Z,84.69
2016-09-19T05:10:13.327Z,84.01
2016-09-19T05:11:13.614Z,84.21
2016-09-19T05:12:13.285Z,84.78
2016-09-19T05:13:13.588Z,85.17
2016-09-19T05:14:13.575Z,85.61
2016-09-19T05:15:13.559Z,85.8
2016-09-19T05:16:13.543Z,85.65
2016-09-19T05:17:13.537Z,85.8
2016-09-19T05:18:13.195Z,85.65
2016-09-19T05:19:13.496Z,86.09
2016-09-19T05:20:13.487Z,86.09
2016-09-19T05:21:13.470Z,86.38
2016-09-19T05:22:13.460Z,86.18
2016-09-19T05:23:13.459Z,86.47
2016-09-19T05:24:13.432Z,86.57
2016-09-19T05:25:13.416Z,86.76
2016-09-19T05:26:13.672Z,85.99
2016-09-19T05:27:13.064Z,85.07
2016-09-19T05:28:13.043Z,84.98
2016-09-19T05:29:13.358Z,84.11
2016-09-19T05:30:13.015Z,83.73
2016-09-19T05:31:13.005Z,83.67
2016-09-19T05:32:13.306Z,83.92
2016-09-19T05:33:13.292Z,84.69
2016-09-19T05:34:12.964Z,85.07
2016-09-19T05:35:12.952Z,85.07
2016-09-19T05:36:13.253Z,85.65
2016-09-19T05:37:12.910Z,85.51
2016-09-19T05:38:12.901Z,85.65
2016-09-19T05:39:12.886Z,85.61
2016-09-19T05:40:12.874Z,85.75
2016-09-19T05:41:12.855Z,85.75
2016-09-19T05:42:13.178Z,85.13
2016-09-19T05:43:13.069Z,85.46
2016-09-19T05:44:13.131Z,85.51
2016-09-19T05:45:13.122Z,85.32
2016-09-19T05:46:13.105Z,85.36
2016-09-19T05:47:13.090Z,84.64
2016-09-19T05:48:12.756Z,83.19
2016-09-19T05:49:13.065Z,83.58
2016-09-19T05:50:13.045Z,83.34
2016-09-19T05:51:13.034Z,83.09
2016-09-19T05:52:13.010Z,84.01
2016-09-19T05:53:12.675Z,84.78
2016-09-19T05:54:12.669Z,84.69
2016-09-19T05:55:12.653Z,84.01
2016-09-19T05:56:12.956Z,82.9
2016-09-19T05:57:12.622Z,82.61
2016-09-19T05:58:12.946Z,82.9
2016-09-19T05:59:12.910Z,83.44
2016-09-19T06:00:12.894Z,84.59
2016-09-19T06:01:12.883Z,85.13
2016-09-19T06:02:12.862Z,85.03
2016-09-19T06:03:12.854Z,85.84
2016-09-19T06:04:12.842Z,85.61
2016-09-19T06:05:12.499Z,86.38
2016-09-19T06:06:12.497Z,86.18
2016-09-19T06:07:12.471Z,86.18
2016-09-19T06:08:12.836Z,84.59
2016-09-19T06:09:12.757Z,85.07
2016-09-19T06:10:12.753Z,85.32
2016-09-19T06:11:12.418Z,84.98
2016-09-19T06:12:12.766Z,85.41
2016-09-19T06:13:12.730Z,85.17
2016-09-19T06:14:12.740Z,84.01
2016-09-19T06:15:12.680Z,82.71
2016-09-19T06:16:12.378Z,82.81
2016-09-19T06:17:12.327Z,83.29
2016-09-19T06:18:12.313Z,83.67
2016-09-19T06:19:12.612Z,83.09
2016-09-19T06:20:12.343Z,83
2016-09-19T06:21:12.276Z,83.34
2016-09-19T06:22:12.573Z,83.63
2016-09-19T06:23:12.554Z,83.53
2016-09-19T06:24:12.557Z,83.73
2016-09-19T06:25:12.546Z,84.4
2016-09-19T06:26:12.533Z,84.3
2016-09-19T06:27:12.490Z,83.83
2016-09-19T06:28:12.500Z,82.9
2016-09-19T06:29:12.141Z,81.94
2016-09-19T06:30:12.451Z,81.02
2016-09-19T06:31:12.125Z,81.5
2016-09-19T06:32:12.421Z,81.75
2016-09-19T06:33:12.410Z,81.37
2016-09-19T06:34:12.086Z,81.3
2016-09-19T06:35:12.455Z,81.46
2016-09-19T06:36:12.423Z,82.04
2016-09-19T06:37:12.025Z,82.52
2016-09-19T06:38:12.346Z,82.23
2016-09-19T06:39:12.377Z,82.48
2016-09-19T06:40:11.991Z,83.92
2016-09-19T06:41:11.979Z,83.44
2016-09-19T06:42:12.296Z,83.06
2016-09-19T06:43:11.949Z,82.9
2016-09-19T06:44:11.924Z,82.86
2016-09-19T06:45:11.917Z,83.09
2016-09-19T06:46:11.906Z,83.25
2016-09-19T06:47:12.215Z,82.61
2016-09-19T06:48:12.192Z,82.61
2016-09-19T06:49:11.868Z,82.61
2016-09-19T06:50:12.165Z,79.67
2016-09-19T06:51:12.169Z,75.8
2016-09-19T06:52:11.810Z,72.96
2016-09-19T06:53:12.127Z,71.06
2016-09-19T06:54:11.797Z,69.46
2016-09-19T06:55:12.106Z,67.88
2016-09-19T06:56:12.090Z,66.47
2016-09-19T06:57:12.077Z,65.82
2016-09-19T06:58:12.075Z,65.63
2016-09-19T06:59:12.059Z,65.17
2016-09-19T07:00:11.721Z,64.34
2016-09-19T07:01:11.719Z,63.69
2016-09-19T07:02:11.696Z,63.46
2016-09-19T07:03:12.015Z,64.34
2016-09-19T07:04:11.996Z,65.27
2016-09-19T07:05:11.668Z,65.34
2016-09-19T07:06:11.985Z,65.05
2016-09-19T07:07:11.976Z,64.5
2016-09-19T07:08:11.639Z,62.69
2016-09-19T07:09:11.635Z,61.78
2016-09-19T07:10:11.934Z,60.94
2016-09-19T07:11:11.709Z,60.84
2016-09-19T07:12:11.916Z,59.9
2016-09-19T07:13:11.735Z,60.09
2016-09-19T07:14:11.583Z,60.58
2016-09-19T07:15:11.568Z,60.16
2016-09-19T07:16:11.995Z,60.74
2016-09-19T07:17:11.871Z,60.42
2016-09-19T07:18:11.544Z,60.25
2016-09-19T07:19:11.861Z,60.35
2016-09-19T07:20:11.848Z,60.06
2016-09-19T07:21:11.825Z,59.97
2016-09-19T07:22:11.826Z,59.97
2016-09-19T07:23:11.811Z,60.84
2016-09-19T07:24:11.915Z,61.1
2016-09-19T07:25:11.785Z,60.61
2016-09-19T07:26:11.842Z,60.35
2016-09-19T07:27:11.464Z,60.45
2016-09-19T07:28:11.455Z,61
2016-09-19T07:29:11.762Z,61.26
2016-09-19T07:30:11.438Z,62.23
2016-09-19T07:31:11.416Z,62.3
2016-09-19T07:32:11.407Z,61.75
2016-09-19T07:33:11.407Z,61.36
2016-09-19T07:34:11.724Z,61.26
2016-09-19T07:35:11.385Z,61.33
2016-09-19T07:36:11.706Z,61.52
2016-09-19T07:37:11.372Z,62.07
2016-09-19T07:38:11.365Z,62.01
2016-09-19T07:39:11.675Z,61.3
2016-09-19T07:40:11.665Z,61.82
2016-09-19T07:41:11.338Z,62.85
2016-09-19T07:42:11.654Z,62.95
2016-09-19T07:43:11.651Z,62.17
2016-09-19T07:44:11.647Z,61.24
2016-09-19T07:45:11.639Z,61.33
2016-09-19T07:46:11.634Z,60.55
2016-09-19T07:47:11.624Z,60.68
2016-09-19T07:48:11.628Z,60.55
2016-09-19T07:49:11.305Z,60.75
2016-09-19T07:50:11.623Z,60.94
2016-09-19T07:51:11.604Z,61.43
2016-09-19T07:52:11.283Z,62.24
2016-09-19T07:53:11.598Z,61.79
2016-09-19T07:54:11.284Z,60.75
2016-09-19T07:55:11.287Z,59.26
2016-09-19T07:56:11.615Z,58.19
2016-09-19T07:57:11.594Z,57.25
2016-09-19T07:58:11.277Z,56.43
2016-09-19T07:59:11.266Z,56.16
2016-09-19T08:00:11.265Z,57.28
2016-09-19T08:01:11.263Z,56.98
2016-09-19T08:02:11.265Z,55.58
2016-09-19T08:03:11.269Z,54.28
2016-09-19T08:04:11.256Z,53.52
2016-09-19T08:05:11.643Z,51.82
2016-09-19T08:06:11.266Z,51.36
2016-09-19T08:07:11.579Z,50.8
2016-09-19T08:08:11.583Z,51.85
2016-09-19T08:09:11.263Z,51.65
2016-09-19T08:10:11.249Z,50.51
2016-09-19T08:11:11.586Z,50.04
2016-09-19T08:12:11.250Z,49.98
2016-09-19T08:13:11.261Z,49.22
2016-09-19T08:14:11.583Z,48.63
2016-09-19T08:15:11.587Z,48.73
2016-09-19T08:16:11.604Z,48.73
2016-09-19T08:17:11.581Z,48.44
2016-09-19T08:18:11.263Z,48.93
2016-09-19T08:19:11.587Z,48.65
2016-09-19T08:20:11.273Z,48.07
2016-09-19T08:21:11.588Z,48.75
2016-09-19T08:22:11.280Z,49.12
2016-09-19T08:23:11.274Z,49.17
2016-09-19T08:24:11.603Z,49.1
2016-09-19T08:25:11.597Z,49.02
2016-09-19T08:26:11.604Z,51.41
2016-09-19T08:27:11.603Z,53.33
2016-09-19T08:28:11.651Z,52.65
2016-09-19T08:29:11.298Z,54.28
2016-09-19T08:30:11.610Z,54.88
2016-09-19T08:31:11.282Z,53.16
2016-09-19T08:32:11.282Z,52.43
2016-09-19T08:33:11.613Z,52.55
2016-09-19T08:34:11.617Z,53.28
2016-09-19T08:35:11.623Z,51.84
2016-09-19T08:36:11.611Z,52.19
2016-09-19T08:37:11.608Z,52.31
2016-09-19T08:38:11.625Z,52.04
2016-09-19T08:39:11.626Z,50.78
2016-09-19T08:40:11.627Z,49.46
2016-09-19T08:41:11.614Z,48.17
2016-09-19T08:42:11.626Z,47.9
2016-09-19T08:43:11.623Z,46.95
2016-09-19T08:44:11.624Z,46.31
2016-09-19T08:45:11.627Z,46
2016-09-19T08:46:11.622Z,45.72
2016-09-19T08:47:11.303Z,45.9
2016-09-19T08:48:11.320Z,45.8
2016-09-19T08:49:11.697Z,45.53
2016-09-19T08:50:11.642Z,45.33
2016-09-19T08:51:11.693Z,44.55
2016-09-19T08:52:11.323Z,45.14
2016-09-19T08:53:11.643Z,44.55
2016-09-19T08:54:11.645Z,45.14
2016-09-19T08:55:11.652Z,45.61
2016-09-19T08:56:11.324Z,45.51
2016-09-19T08:57:11.345Z,45.21
2016-09-19T08:58:11.336Z,45.14
2016-09-19T08:59:11.332Z,45.33
2016-09-19T09:00:11.661Z,45.12
2016-09-19T09:01:11.348Z,45.51
2016-09-19T09:02:11.666Z,46.44
2016-09-19T09:03:11.665Z,46.34
2016-09-19T09:04:11.668Z,45.78
2016-09-19T09:05:11.672Z,46.09
2016-09-19T09:06:11.678Z,46
2016-09-19T09:07:11.674Z,46
2016-09-19T09:08:11.365Z,46.58
2016-09-19T09:09:11.686Z,46.29
2016-09-19T09:10:11.363Z,47.24
2016-09-19T09:11:11.376Z,46.36
2016-09-19T09:12:11.695Z,46.26
2016-09-19T09:13:11.689Z,45.85
2016-09-19T09:14:11.738Z,45.97
2016-09-19T09:15:11.700Z,45.78
2016-09-19T09:16:11.695Z,45.9
2016-09-19T09:17:11.730Z,46
2016-09-19T09:18:11.704Z,46.56
2016-09-19T09:19:11.710Z,46.63
2016-09-19T09:20:11.394Z,46.39
2016-09-19T09:21:11.716Z,46.29
2016-09-19T09:22:11.714Z,45.9
2016-09-19T09:23:11.394Z,45.62
2016-09-19T09:24:11.394Z,45.53
2016-09-19T09:25:11.395Z,46.31
2016-09-19T09:26:11.715Z,45.53
2016-09-19T09:27:11.729Z,44.67
2016-09-19T09:28:11.719Z,44.74
2016-09-19T09:29:11.736Z,44.94
2016-09-19T09:30:11.734Z,45.43
2016-09-19T09:31:11.401Z,45.55
2016-09-19T09:32:11.415Z,44.96
2016-09-19T09:33:11.735Z,44.77
2016-09-19T09:34:11.734Z,45.72
2016-09-19T09:35:11.738Z,45.14
2016-09-19T09:36:11.734Z,45.14
2016-09-19T09:37:11.435Z,44.84
2016-09-19T09:38:11.435Z,45.04
2016-09-19T09:39:11.807Z,45.02
2016-09-19T09:40:11.458Z,45.51
2016-09-19T09:41:11.434Z,45.21
2016-09-19T09:42:11.434Z,45.12
2016-09-19T09:43:11.437Z,45.61
2016-09-19T09:44:11.769Z,45.02
2016-09-19T09:45:11.760Z,44.74
2016-09-19T09:46:11.766Z,44.55
2016-09-19T09:47:11.438Z,44.55
2016-09-19T09:48:11.754Z,45.61
2016-09-19T09:49:11.443Z,46.75
2016-09-19T09:50:11.777Z,46.39
2016-09-19T09:51:11.762Z,46.48
2016-09-19T09:52:11.444Z,45.12
2016-09-19T09:53:11.444Z,46.09
2016-09-19T09:54:11.447Z,46.29
2016-09-19T09:55:11.775Z,45.58
2016-09-19T09:56:11.764Z,46.46
2016-09-19T09:57:11.775Z,46.83
2016-09-19T09:58:11.457Z,46.36
2016-09-19T09:59:11.766Z,46.19
2016-09-19T10:00:11.448Z,46.09
2016-09-19T10:01:11.447Z,45.23
2016-09-19T10:02:11.779Z,45.14
2016-09-19T10:03:11.771Z,45.14
2016-09-19T10:04:11.451Z,45.43
2016-09-19T10:05:11.455Z,44.94
2016-09-19T10:06:11.455Z,45.14
2016-09-19T10:07:11.455Z,44.65
2016-09-19T10:08:11.454Z,44.67
2016-09-19T10:09:11.775Z,44.55
2016-09-19T10:10:11.779Z,45.8
2016-09-19T10:11:11.445Z,46.29
2016-09-19T10:12:11.764Z,46.09
2016-09-19T10:13:11.760Z,45.53
2016-09-19T10:14:11.445Z,46.21
2016-09-19T10:15:11.761Z,47.41
2016-09-19T10:16:11.446Z,50.73
2016-09-19T10:17:11.763Z,51.79
2016-09-19T10:18:11.759Z,52.59
2016-09-19T10:19:11.754Z,53.45
2016-09-19T10:20:11.435Z,53.45
2016-09-19T10:21:11.756Z,53.61
2016-09-19T10:22:11.741Z,53.25
2016-09-19T10:23:11.745Z,52.43
2016-09-19T10:24:11.742Z,52.06
2016-09-19T10:25:11.739Z,50.56
2016-09-19T10:26:11.741Z,52.16
2016-09-19T10:27:11.735Z,52.59
2016-09-19T10:28:11.417Z,52.11
2016-09-19T10:29:11.729Z,53.57
2016-09-19T10:30:11.736Z,52.23
2016-09-19T10:31:11.400Z,51.39
2016-09-19T10:32:11.713Z,51.58
2016-09-19T10:33:11.711Z,52.26
2016-09-19T10:34:11.387Z,52.26
2016-09-19T10:35:11.386Z,52.92
2016-09-19T10:36:11.696Z,53.08
2016-09-19T10:37:11.398Z,53.64
2016-09-19T10:38:11.364Z,53.93
2016-09-19T10:39:11.361Z,53.45
2016-09-19T10:40:11.679Z,55
2016-09-19T10:41:11.684Z,55.19
2016-09-19T10:42:11.355Z,54.71
2016-09-19T10:43:11.674Z,54.03
2016-09-19T10:44:11.345Z,54.13
2016-09-19T10:45:11.345Z,55.17
2016-09-19T10:46:11.647Z,54.66
2016-09-19T10:47:11.324Z,54.88
2016-09-19T10:48:11.646Z,54.49
2016-09-19T10:49:11.647Z,54.29
2016-09-19T10:50:11.635Z,54.94
2016-09-19T10:51:11.299Z,54.94
2016-09-19T10:52:11.302Z,55.63
2016-09-19T10:53:11.297Z,56.21
2016-09-19T10:54:11.303Z,55.99
2016-09-19T10:55:11.601Z,55.41
2016-09-19T10:56:11.600Z,55.99
2016-09-19T10:57:11.596Z,56.28
2016-09-19T10:58:11.687Z,56.09
2016-09-19T10:59:11.255Z,55.5
2016-09-19T11:00:11.626Z,56.15
2016-09-19T11:01:11.552Z,56.15
2016-09-19T11:02:11.555Z,55.47
2016-09-19T11:04:11.544Z,56.93
2016-09-19T11:05:11.530Z,57.42
2016-09-19T11:06:11.537Z,57.44
2016-09-19T11:07:11.511Z,57.15
2016-09-19T11:08:11.513Z,57.03
2016-09-19T11:09:11.176Z,57.42
2016-09-19T11:10:11.493Z,57.19
2016-09-19T11:11:11.158Z,58.16
2016-09-19T11:12:11.155Z,58.14
2016-09-19T11:13:11.468Z,58.16
2016-09-19T11:14:11.474Z,58.06
2016-09-19T11:15:11.457Z,57.97
2016-09-19T11:16:11.129Z,57.97
2016-09-19T11:17:11.438Z,58.06
2016-09-19T11:18:11.128Z,57.94
2016-09-19T11:19:11.113Z,58.33
2016-09-19T11:20:11.411Z,59
2016-09-19T11:21:11.422Z,59.81
2016-09-19T11:22:11.094Z,59.49
2016-09-19T11:23:11.062Z,59.46
2016-09-19T11:24:11.378Z,59.56
2016-09-19T11:25:11.383Z,59.84
2016-09-19T11:26:11.371Z,58.78
2016-09-19T11:27:11.037Z,58.91
2016-09-19T11:28:11.361Z,59.07
2016-09-19T11:29:11.353Z,59.56
2016-09-19T11:30:11.343Z,59.91
2016-09-19T11:31:11.324Z,60.59
2016-09-19T11:32:11.317Z,60.85
2016-09-19T11:33:11.307Z,60.78
2016-09-19T11:34:10.977Z,60.88
2016-09-19T11:35:11.294Z,60.57
2016-09-19T11:36:11.280Z,60.85
2016-09-19T11:37:10.952Z,60.95
2016-09-19T11:38:11.268Z,60.66
2016-09-19T11:39:11.255Z,61.15
2016-09-19T11:40:11.255Z,61.27
2016-09-19T11:41:10.915Z,60.88
2016-09-19T11:42:10.913Z,61.08
2016-09-19T11:43:11.231Z,61.76
2016-09-19T11:44:10.892Z,61.46
2016-09-19T11:45:11.213Z,61.66
2016-09-19T11:46:11.195Z,61.18
2016-09-19T11:47:11.185Z,60.78
2016-09-19T11:48:11.187Z,61.76
2016-09-19T11:49:10.860Z,62.04
2016-09-19T11:50:11.156Z,59.84
2016-09-19T11:51:11.156Z,59.84
2016-09-19T11:52:11.153Z,59.23
2016-09-19T11:53:10.812Z,60.01
2016-09-19T11:54:11.134Z,60.88
2016-09-19T11:55:10.787Z,60.21
2016-09-19T11:56:10.791Z,59.91
2016-09-19T11:57:11.092Z,60.11
2016-09-19T11:58:10.779Z,60.75
2016-09-19T11:59:10.762Z,60.17
2016-09-19T12:00:11.074Z,60.01
2016-09-19T12:01:10.744Z,60.34
2016-09-19T12:02:11.014Z,61.02
2016-09-19T12:03:11.057Z,60.92
2016-09-19T12:04:11.044Z,61.15
2016-09-19T12:05:11.025Z,61.33
2016-09-19T12:06:11.057Z,61.82
2016-09-19T12:07:11.013Z,60.69
2016-09-19T12:08:10.688Z,60.21
2016-09-19T12:09:10.993Z,60.78
2016-09-19T12:10:10.674Z,61.43
2016-09-19T12:11:10.665Z,61.66
2016-09-19T12:12:10.955Z,60.3
2016-09-19T12:13:10.964Z,59.36
2016-09-19T12:14:10.956Z,58.98
2016-09-19T12:15:10.940Z,59.27
2016-09-19T12:16:10.934Z,59.07
2016-09-19T12:17:10.915Z,59.56
2016-09-19T12:18:10.597Z,59.94
2016-09-19T12:19:10.588Z,59.36
2016-09-19T12:20:10.904Z,59.94
2016-09-19T12:21:10.884Z,58.91
2016-09-19T12:22:10.882Z,59.1
2016-09-19T12:23:10.884Z,58.81
2016-09-19T12:24:10.541Z,58.91
2016-09-19T12:25:10.905Z,58.98
2016-09-19T12:26:10.858Z,59.84
2016-09-19T12:27:10.846Z,59.46
2016-09-19T12:28:10.497Z,58.88
2016-09-19T12:29:10.585Z,58.69
2016-09-19T12:30:10.810Z,59.78
2016-09-19T12:31:10.514Z,58.81
2016-09-19T12:32:10.796Z,58.33
2016-09-19T12:33:10.798Z,58.14
2016-09-19T12:34:10.451Z,58.88
2016-09-19T12:35:10.464Z,58.52
2016-09-19T12:36:10.754Z,58.91
2016-09-19T12:37:10.757Z,58.49
2016-09-19T12:38:10.738Z,58.39
2016-09-19T12:39:10.781Z,58.59
2016-09-19T12:40:10.722Z,59.75
2016-09-19T12:41:10.711Z,58.88
2016-09-19T12:42:10.386Z,59.17
2016-09-19T12:43:10.374Z,58.98
2016-09-19T12:44:10.685Z,58.59
2016-09-19T12:45:10.357Z,58.95
2016-09-19T12:46:10.358Z,59.11
2016-09-19T12:47:10.666Z,59.14
2016-09-19T12:48:10.647Z,58.75
2016-09-19T12:49:10.639Z,58.75
2016-09-19T12:50:10.634Z,58.59
2016-09-19T12:51:10.307Z,58.04
2016-09-19T12:52:10.625Z,57.36
2016-09-19T12:53:10.607Z,57.26
2016-09-19T12:54:10.601Z,58.23
2016-09-19T12:55:10.584Z,58.23
2016-09-19T12:56:10.582Z,57.81